sensor_id;sensor_type;location;lat;lon;timestamp;P1;durP1;ratioP1;P2;durP2;ratioP2
44456;SDS011;30159;49.316;8.558;2022-10-13T00:01:39;25.27;;;12.47;;
44456;SDS011;30159;49.316;8.558;2022-10-13T00:04:06;26.27;;;11.87;;
44456;SDS011;30159;49.316;8.558;2022-10-13T00:06:33;18.83;;;11.83;;
44456;SDS011;30159;49.316;8.558;2022-10-13T00:09:01;20.50;;;12.33;;
44456;SDS011;30159;49.316;8.558;2022-10-13T00:11:28;16.97;;;10.70;;
44456;SDS011;30159;49.316;8.558;2022-10-13T00:13:56;19.50;;;11.40;;
44456;SDS011;30159;49.316;8.558;2022-10-13T00:16:23;25.43;;;12.13;;
44456;SDS011;30159;49.316;8.558;2022-10-13T00:18:51;30.27;;;14.57;;
44456;SDS011;30159;49.316;8.558;2022-10-13T00:21:18;19.10;;;11.77;;
44456;SDS011;30159;49.316;8.558;2022-10-13T00:23:47;28.63;;;12.97;;
44456;SDS011;30159;49.316;8.558;2022-10-13T00:26:15;28.03;;;12.07;;
44456;SDS011;30159;49.316;8.558;2022-10-13T00:28:43;29.83;;;12.13;;
44456;SDS011;30159;49.316;8.558;2022-10-13T00:31:16;29.70;;;13.73;;
44456;SDS011;30159;49.316;8.558;2022-10-13T00:33:43;27.53;;;13.20;;
44456;SDS011;30159;49.316;8.558;2022-10-13T00:36:10;39.00;;;14.37;;
44456;SDS011;30159;49.316;8.558;2022-10-13T00:38:37;25.50;;;12.53;;
44456;SDS011;30159;49.316;8.558;2022-10-13T00:41:04;27.03;;;12.30;;
44456;SDS011;30159;49.316;8.558;2022-10-13T00:46:15;28.20;;;12.17;;
44456;SDS011;30159;49.316;8.558;2022-10-13T00:48:42;18.27;;;13.40;;
44456;SDS011;30159;49.316;8.558;2022-10-13T00:51:12;30.13;;;12.73;;
44456;SDS011;30159;49.316;8.558;2022-10-13T00:53:41;25.97;;;12.07;;
44456;SDS011;30159;49.316;8.558;2022-10-13T00:56:09;30.90;;;13.03;;
44456;SDS011;30159;49.316;8.558;2022-10-13T00:58:37;20.63;;;11.97;;
44456;SDS011;30159;49.316;8.558;2022-10-13T01:01:05;20.33;;;12.47;;
44456;SDS011;30159;49.316;8.558;2022-10-13T01:03:32;24.47;;;12.30;;
44456;SDS011;30159;49.316;8.558;2022-10-13T01:06:00;18.83;;;10.97;;
44456;SDS011;30159;49.316;8.558;2022-10-13T01:08:29;34.20;;;12.80;;
44456;SDS011;30159;49.316;8.558;2022-10-13T01:10:57;19.83;;;10.53;;
44456;SDS011;30159;49.316;8.558;2022-10-13T01:13:38;20.23;;;13.53;;
44456;SDS011;30159;49.316;8.558;2022-10-13T01:16:11;20.97;;;11.50;;
44456;SDS011;30159;49.316;8.558;2022-10-13T01:18:43;22.20;;;12.30;;
44456;SDS011;30159;49.316;8.558;2022-10-13T01:21:21;22.40;;;11.97;;
44456;SDS011;30159;49.316;8.558;2022-10-13T01:27:07;23.77;;;12.30;;
44456;SDS011;30159;49.316;8.558;2022-10-13T01:32:35;23.30;;;12.23;;
44456;SDS011;30159;49.316;8.558;2022-10-13T01:35:11;17.10;;;11.10;;
44456;SDS011;30159;49.316;8.558;2022-10-13T01:37:43;23.13;;;11.60;;
44456;SDS011;30159;49.316;8.558;2022-10-13T01:40:14;24.77;;;12.33;;
44456;SDS011;30159;49.316;8.558;2022-10-13T01:42:49;20.87;;;11.23;;
44456;SDS011;30159;49.316;8.558;2022-10-13T01:45:24;26.77;;;13.27;;
44456;SDS011;30159;49.316;8.558;2022-10-13T01:47:56;22.27;;;12.40;;
44456;SDS011;30159;49.316;8.558;2022-10-13T01:50:25;28.10;;;13.60;;
44456;SDS011;30159;49.316;8.558;2022-10-13T01:52:53;20.50;;;12.20;;
44456;SDS011;30159;49.316;8.558;2022-10-13T01:55:20;20.37;;;12.27;;
44456;SDS011;30159;49.316;8.558;2022-10-13T01:57:47;27.30;;;12.90;;
44456;SDS011;30159;49.316;8.558;2022-10-13T02:00:15;29.17;;;13.47;;
44456;SDS011;30159;49.316;8.558;2022-10-13T02:02:48;16.57;;;11.90;;
44456;SDS011;30159;49.316;8.558;2022-10-13T02:05:24;18.83;;;11.63;;
44456;SDS011;30159;49.316;8.558;2022-10-13T02:07:58;36.77;;;13.40;;
44456;SDS011;30159;49.316;8.558;2022-10-13T02:10:30;34.90;;;12.87;;
44456;SDS011;30159;49.316;8.558;2022-10-13T02:13:03;24.07;;;12.60;;
44456;SDS011;30159;49.316;8.558;2022-10-13T02:15:32;23.57;;;13.43;;
44456;SDS011;30159;49.316;8.558;2022-10-13T02:18:04;24.70;;;12.87;;
44456;SDS011;30159;49.316;8.558;2022-10-13T02:20:32;33.10;;;13.03;;
44456;SDS011;30159;49.316;8.558;2022-10-13T02:23:01;21.00;;;12.13;;
44456;SDS011;30159;49.316;8.558;2022-10-13T02:25:32;27.90;;;13.43;;
44456;SDS011;30159;49.316;8.558;2022-10-13T02:27:59;24.33;;;12.67;;
44456;SDS011;30159;49.316;8.558;2022-10-13T02:30:28;23.00;;;12.83;;
44456;SDS011;30159;49.316;8.558;2022-10-13T02:32:57;27.30;;;12.67;;
44456;SDS011;30159;49.316;8.558;2022-10-13T02:35:25;20.70;;;12.47;;
44456;SDS011;30159;49.316;8.558;2022-10-13T02:37:51;20.30;;;12.53;;
44456;SDS011;30159;49.316;8.558;2022-10-13T02:40:18;19.53;;;12.17;;
44456;SDS011;30159;49.316;8.558;2022-10-13T02:42:44;19.10;;;11.80;;
44456;SDS011;30159;49.316;8.558;2022-10-13T02:45:11;23.33;;;12.57;;
44456;SDS011;30159;49.316;8.558;2022-10-13T02:47:38;22.50;;;11.03;;
44456;SDS011;30159;49.316;8.558;2022-10-13T02:50:05;21.40;;;11.73;;
44456;SDS011;30159;49.316;8.558;2022-10-13T02:52:33;18.43;;;12.13;;
44456;SDS011;30159;49.316;8.558;2022-10-13T02:55:00;18.37;;;11.80;;
44456;SDS011;30159;49.316;8.558;2022-10-13T02:57:27;17.97;;;11.37;;
44456;SDS011;30159;49.316;8.558;2022-10-13T02:59:53;34.87;;;12.80;;
44456;SDS011;30159;49.316;8.558;2022-10-13T03:02:20;25.00;;;11.60;;
44456;SDS011;30159;49.316;8.558;2022-10-13T03:04:46;17.63;;;11.70;;
44456;SDS011;30159;49.316;8.558;2022-10-13T03:07:13;37.70;;;11.57;;
44456;SDS011;30159;49.316;8.558;2022-10-13T03:09:41;21.87;;;10.73;;
44456;SDS011;30159;49.316;8.558;2022-10-13T03:12:07;23.93;;;11.73;;
44456;SDS011;30159;49.316;8.558;2022-10-13T03:14:34;20.90;;;10.60;;
44456;SDS011;30159;49.316;8.558;2022-10-13T03:17:01;26.27;;;10.60;;
44456;SDS011;30159;49.316;8.558;2022-10-13T03:19:28;26.73;;;11.73;;
44456;SDS011;30159;49.316;8.558;2022-10-13T03:21:54;17.93;;;9.80;;
44456;SDS011;30159;49.316;8.558;2022-10-13T03:24:21;12.60;;;9.97;;
44456;SDS011;30159;49.316;8.558;2022-10-13T03:26:49;18.50;;;10.23;;
44456;SDS011;30159;49.316;8.558;2022-10-13T03:29:16;17.00;;;9.93;;
44456;SDS011;30159;49.316;8.558;2022-10-13T03:31:43;17.90;;;10.80;;
44456;SDS011;30159;49.316;8.558;2022-10-13T03:34:10;22.57;;;11.33;;
44456;SDS011;30159;49.316;8.558;2022-10-13T03:36:37;18.93;;;11.57;;
44456;SDS011;30159;49.316;8.558;2022-10-13T03:39:03;20.43;;;9.73;;
44456;SDS011;30159;49.316;8.558;2022-10-13T03:41:30;19.43;;;12.63;;
44456;SDS011;30159;49.316;8.558;2022-10-13T03:43:58;20.77;;;10.90;;
44456;SDS011;30159;49.316;8.558;2022-10-13T03:46:26;15.33;;;11.27;;
44456;SDS011;30159;49.316;8.558;2022-10-13T03:48:54;17.63;;;11.00;;
44456;SDS011;30159;49.316;8.558;2022-10-13T03:51:21;23.93;;;11.10;;
44456;SDS011;30159;49.316;8.558;2022-10-13T03:53:48;16.33;;;11.60;;
44456;SDS011;30159;49.316;8.558;2022-10-13T03:56:18;19.23;;;11.30;;
44456;SDS011;30159;49.316;8.558;2022-10-13T03:58:46;34.43;;;13.03;;
44456;SDS011;30159;49.316;8.558;2022-10-13T04:01:19;25.47;;;13.63;;
44456;SDS011;30159;49.316;8.558;2022-10-13T04:03:46;23.20;;;12.07;;
44456;SDS011;30159;49.316;8.558;2022-10-13T04:06:12;34.83;;;13.23;;
44456;SDS011;30159;49.316;8.558;2022-10-13T04:08:39;28.90;;;13.87;;
44456;SDS011;30159;49.316;8.558;2022-10-13T04:11:06;26.37;;;14.93;;
44456;SDS011;30159;49.316;8.558;2022-10-13T04:13:33;26.73;;;14.23;;
44456;SDS011;30159;49.316;8.558;2022-10-13T04:16:01;23.30;;;14.87;;
44456;SDS011;30159;49.316;8.558;2022-10-13T04:18:29;25.27;;;13.93;;
44456;SDS011;30159;49.316;8.558;2022-10-13T04:20:55;25.20;;;12.07;;
44456;SDS011;30159;49.316;8.558;2022-10-13T04:23:22;29.83;;;14.67;;
44456;SDS011;30159;49.316;8.558;2022-10-13T04:25:49;25.13;;;14.67;;
44456;SDS011;30159;49.316;8.558;2022-10-13T04:28:16;31.97;;;14.70;;
44456;SDS011;30159;49.316;8.558;2022-10-13T04:30:42;30.77;;;15.47;;
44456;SDS011;30159;49.316;8.558;2022-10-13T04:33:09;40.43;;;14.80;;
44456;SDS011;30159;49.316;8.558;2022-10-13T04:35:39;31.20;;;14.60;;
44456;SDS011;30159;49.316;8.558;2022-10-13T04:38:06;33.63;;;14.40;;
44456;SDS011;30159;49.316;8.558;2022-10-13T04:40:33;30.50;;;15.40;;
44456;SDS011;30159;49.316;8.558;2022-10-13T04:42:59;31.90;;;14.37;;
44456;SDS011;30159;49.316;8.558;2022-10-13T04:45:26;36.00;;;15.77;;
44456;SDS011;30159;49.316;8.558;2022-10-13T04:47:53;43.77;;;15.77;;
44456;SDS011;30159;49.316;8.558;2022-10-13T04:50:19;41.20;;;14.40;;
44456;SDS011;30159;49.316;8.558;2022-10-13T04:52:47;29.27;;;13.23;;
44456;SDS011;30159;49.316;8.558;2022-10-13T04:55:14;25.30;;;13.20;;
44456;SDS011;30159;49.316;8.558;2022-10-13T04:57:40;33.80;;;14.47;;
44456;SDS011;30159;49.316;8.558;2022-10-13T05:00:07;38.43;;;14.87;;
44456;SDS011;30159;49.316;8.558;2022-10-13T05:02:35;29.57;;;14.37;;
44456;SDS011;30159;49.316;8.558;2022-10-13T05:05:01;34.43;;;16.80;;
44456;SDS011;30159;49.316;8.558;2022-10-13T05:07:29;28.80;;;15.20;;
44456;SDS011;30159;49.316;8.558;2022-10-13T05:09:57;29.97;;;14.67;;
44456;SDS011;30159;49.316;8.558;2022-10-13T05:12:23;35.23;;;15.80;;
44456;SDS011;30159;49.316;8.558;2022-10-13T05:14:49;35.77;;;14.90;;
44456;SDS011;30159;49.316;8.558;2022-10-13T05:17:16;28.87;;;14.80;;
44456;SDS011;30159;49.316;8.558;2022-10-13T05:19:42;31.67;;;13.47;;
44456;SDS011;30159;49.316;8.558;2022-10-13T05:22:09;33.40;;;14.60;;
44456;SDS011;30159;49.316;8.558;2022-10-13T05:24:35;31.77;;;14.13;;
44456;SDS011;30159;49.316;8.558;2022-10-13T05:27:04;32.07;;;14.20;;
44456;SDS011;30159;49.316;8.558;2022-10-13T05:29:32;29.83;;;14.90;;
44456;SDS011;30159;49.316;8.558;2022-10-13T05:31:58;25.47;;;12.73;;
44456;SDS011;30159;49.316;8.558;2022-10-13T05:34:25;30.30;;;14.50;;
44456;SDS011;30159;49.316;8.558;2022-10-13T05:36:51;29.43;;;13.00;;
44456;SDS011;30159;49.316;8.558;2022-10-13T05:39:18;32.10;;;13.80;;
44456;SDS011;30159;49.316;8.558;2022-10-13T05:41:44;28.87;;;13.50;;
44456;SDS011;30159;49.316;8.558;2022-10-13T05:44:12;28.03;;;13.63;;
44456;SDS011;30159;49.316;8.558;2022-10-13T05:46:40;30.17;;;14.87;;
44456;SDS011;30159;49.316;8.558;2022-10-13T05:49:07;27.83;;;15.10;;
44456;SDS011;30159;49.316;8.558;2022-10-13T05:51:34;24.70;;;13.03;;
44456;SDS011;30159;49.316;8.558;2022-10-13T05:54:04;22.33;;;13.90;;
44456;SDS011;30159;49.316;8.558;2022-10-13T05:56:35;26.40;;;13.67;;
44456;SDS011;30159;49.316;8.558;2022-10-13T05:59:06;25.40;;;14.30;;
44456;SDS011;30159;49.316;8.558;2022-10-13T06:01:37;27.30;;;13.37;;
44456;SDS011;30159;49.316;8.558;2022-10-13T06:04:06;28.97;;;13.60;;
44456;SDS011;30159;49.316;8.558;2022-10-13T06:06:36;22.93;;;12.90;;
44456;SDS011;30159;49.316;8.558;2022-10-13T06:09:04;26.87;;;13.40;;
44456;SDS011;30159;49.316;8.558;2022-10-13T06:11:31;25.20;;;12.87;;
44456;SDS011;30159;49.316;8.558;2022-10-13T06:13:57;24.50;;;13.47;;
44456;SDS011;30159;49.316;8.558;2022-10-13T06:16:24;34.97;;;14.70;;
44456;SDS011;30159;49.316;8.558;2022-10-13T06:18:52;27.43;;;14.37;;
44456;SDS011;30159;49.316;8.558;2022-10-13T06:21:18;32.60;;;14.30;;
44456;SDS011;30159;49.316;8.558;2022-10-13T06:23:45;31.23;;;15.70;;
44456;SDS011;30159;49.316;8.558;2022-10-13T06:26:11;32.13;;;15.13;;
44456;SDS011;30159;49.316;8.558;2022-10-13T06:28:38;27.03;;;14.13;;
44456;SDS011;30159;49.316;8.558;2022-10-13T06:31:04;28.13;;;13.90;;
44456;SDS011;30159;49.316;8.558;2022-10-13T06:33:32;24.67;;;13.10;;
44456;SDS011;30159;49.316;8.558;2022-10-13T06:36:01;28.27;;;14.23;;
44456;SDS011;30159;49.316;8.558;2022-10-13T06:38:28;22.57;;;13.40;;
44456;SDS011;30159;49.316;8.558;2022-10-13T06:40:57;25.87;;;12.47;;
44456;SDS011;30159;49.316;8.558;2022-10-13T06:43:24;25.63;;;12.33;;
44456;SDS011;30159;49.316;8.558;2022-10-13T06:45:51;19.60;;;12.80;;
44456;SDS011;30159;49.316;8.558;2022-10-13T06:48:18;23.73;;;13.83;;
44456;SDS011;30159;49.316;8.558;2022-10-13T06:50:44;21.00;;;12.43;;
44456;SDS011;30159;49.316;8.558;2022-10-13T06:53:12;17.63;;;12.43;;
44456;SDS011;30159;49.316;8.558;2022-10-13T06:55:38;21.87;;;11.93;;
44456;SDS011;30159;49.316;8.558;2022-10-13T06:58:07;19.40;;;12.80;;
44456;SDS011;30159;49.316;8.558;2022-10-13T07:00:34;20.93;;;11.57;;
44456;SDS011;30159;49.316;8.558;2022-10-13T07:03:00;16.20;;;10.83;;
44456;SDS011;30159;49.316;8.558;2022-10-13T07:05:27;19.50;;;12.60;;
44456;SDS011;30159;49.316;8.558;2022-10-13T07:07:53;21.87;;;11.80;;
44456;SDS011;30159;49.316;8.558;2022-10-13T07:10:21;19.73;;;11.57;;
44456;SDS011;30159;49.316;8.558;2022-10-13T07:12:48;18.50;;;11.33;;
44456;SDS011;30159;49.316;8.558;2022-10-13T07:15:14;20.90;;;11.23;;
44456;SDS011;30159;49.316;8.558;2022-10-13T07:17:41;27.27;;;11.07;;
44456;SDS011;30159;49.316;8.558;2022-10-13T07:20:08;11.60;;;9.30;;
44456;SDS011;30159;49.316;8.558;2022-10-13T07:22:35;15.13;;;10.60;;
44456;SDS011;30159;49.316;8.558;2022-10-13T07:25:01;13.20;;;9.60;;
44456;SDS011;30159;49.316;8.558;2022-10-13T07:27:29;15.47;;;10.73;;
44456;SDS011;30159;49.316;8.558;2022-10-13T07:29:56;20.97;;;11.10;;
44456;SDS011;30159;49.316;8.558;2022-10-13T07:32:23;17.37;;;11.40;;
44456;SDS011;30159;49.316;8.558;2022-10-13T07:34:50;22.00;;;11.00;;
44456;SDS011;30159;49.316;8.558;2022-10-13T07:37:18;19.07;;;11.40;;
44456;SDS011;30159;49.316;8.558;2022-10-13T07:39:44;17.50;;;10.77;;
44456;SDS011;30159;49.316;8.558;2022-10-13T07:42:11;15.23;;;10.90;;
44456;SDS011;30159;49.316;8.558;2022-10-13T07:44:39;16.17;;;10.53;;
44456;SDS011;30159;49.316;8.558;2022-10-13T07:47:05;16.80;;;10.67;;
44456;SDS011;30159;49.316;8.558;2022-10-13T07:49:32;19.23;;;10.50;;
44456;SDS011;30159;49.316;8.558;2022-10-13T07:51:58;13.43;;;10.30;;
44456;SDS011;30159;49.316;8.558;2022-10-13T07:54:25;17.30;;;10.80;;
44456;SDS011;30159;49.316;8.558;2022-10-13T07:56:52;19.03;;;11.90;;
44456;SDS011;30159;49.316;8.558;2022-10-13T07:59:20;20.53;;;12.03;;
44456;SDS011;30159;49.316;8.558;2022-10-13T08:01:48;18.43;;;12.27;;
44456;SDS011;30159;49.316;8.558;2022-10-13T08:04:14;17.53;;;10.80;;
44456;SDS011;30159;49.316;8.558;2022-10-13T08:06:41;18.10;;;11.30;;
44456;SDS011;30159;49.316;8.558;2022-10-13T08:09:08;23.20;;;11.80;;
44456;SDS011;30159;49.316;8.558;2022-10-13T08:11:34;18.83;;;11.27;;
44456;SDS011;30159;49.316;8.558;2022-10-13T08:14:01;16.67;;;10.90;;
44456;SDS011;30159;49.316;8.558;2022-10-13T08:16:28;17.70;;;10.60;;
44456;SDS011;30159;49.316;8.558;2022-10-13T08:18:57;17.80;;;11.37;;
44456;SDS011;30159;49.316;8.558;2022-10-13T08:21:25;13.47;;;9.40;;
44456;SDS011;30159;49.316;8.558;2022-10-13T08:23:53;23.70;;;10.80;;
44456;SDS011;30159;49.316;8.558;2022-10-13T08:26:20;14.10;;;9.80;;
44456;SDS011;30159;49.316;8.558;2022-10-13T08:28:49;17.57;;;10.80;;
44456;SDS011;30159;49.316;8.558;2022-10-13T08:31:16;16.90;;;11.60;;
44456;SDS011;30159;49.316;8.558;2022-10-13T08:33:43;22.53;;;11.83;;
44456;SDS011;30159;49.316;8.558;2022-10-13T08:36:12;13.70;;;9.63;;
44456;SDS011;30159;49.316;8.558;2022-10-13T08:38:39;15.30;;;10.97;;
44456;SDS011;30159;49.316;8.558;2022-10-13T08:41:11;21.67;;;11.37;;
44456;SDS011;30159;49.316;8.558;2022-10-13T08:43:41;20.17;;;10.70;;
44456;SDS011;30159;49.316;8.558;2022-10-13T08:46:12;12.43;;;10.40;;
44456;SDS011;30159;49.316;8.558;2022-10-13T08:48:43;17.13;;;10.97;;
44456;SDS011;30159;49.316;8.558;2022-10-13T08:51:10;15.60;;;10.40;;
44456;SDS011;30159;49.316;8.558;2022-10-13T08:53:41;18.10;;;11.97;;
44456;SDS011;30159;49.316;8.558;2022-10-13T08:56:09;12.00;;;9.87;;
44456;SDS011;30159;49.316;8.558;2022-10-13T08:58:42;14.50;;;10.60;;
44456;SDS011;30159;49.316;8.558;2022-10-13T09:01:12;18.00;;;10.40;;
44456;SDS011;30159;49.316;8.558;2022-10-13T09:03:44;11.13;;;9.83;;
44456;SDS011;30159;49.316;8.558;2022-10-13T09:06:17;13.83;;;9.50;;
44456;SDS011;30159;49.316;8.558;2022-10-13T09:08:51;19.53;;;11.00;;
44456;SDS011;30159;49.316;8.558;2022-10-13T09:11:20;18.17;;;11.53;;
44456;SDS011;30159;49.316;8.558;2022-10-13T09:13:48;13.87;;;10.97;;
44456;SDS011;30159;49.316;8.558;2022-10-13T09:16:24;15.23;;;11.90;;
44456;SDS011;30159;49.316;8.558;2022-10-13T09:18:51;15.97;;;11.50;;
44456;SDS011;30159;49.316;8.558;2022-10-13T09:21:21;16.67;;;12.53;;
44456;SDS011;30159;49.316;8.558;2022-10-13T09:23:49;16.73;;;10.40;;
44456;SDS011;30159;49.316;8.558;2022-10-13T09:26:18;20.07;;;14.60;;
44456;SDS011;30159;49.316;8.558;2022-10-13T09:28:47;22.47;;;12.60;;
44456;SDS011;30159;49.316;8.558;2022-10-13T09:31:15;16.33;;;13.00;;
44456;SDS011;30159;49.316;8.558;2022-10-13T09:33:44;17.07;;;10.97;;
44456;SDS011;30159;49.316;8.558;2022-10-13T09:36:13;27.83;;;11.50;;
44456;SDS011;30159;49.316;8.558;2022-10-13T09:38:43;13.07;;;10.90;;
44456;SDS011;30159;49.316;8.558;2022-10-13T09:41:29;16.57;;;11.47;;
44456;SDS011;30159;49.316;8.558;2022-10-13T09:43:58;12.10;;;10.70;;
44456;SDS011;30159;49.316;8.558;2022-10-13T09:46:37;12.30;;;10.77;;
44456;SDS011;30159;49.316;8.558;2022-10-13T09:49:20;11.73;;;9.93;;
44456;SDS011;30159;49.316;8.558;2022-10-13T09:51:57;14.17;;;11.60;;
44456;SDS011;30159;49.316;8.558;2022-10-13T09:54:27;13.40;;;11.27;;
44456;SDS011;30159;49.316;8.558;2022-10-13T09:57:04;14.90;;;10.83;;
44456;SDS011;30159;49.316;8.558;2022-10-13T09:59:37;14.33;;;11.10;;
44456;SDS011;30159;49.316;8.558;2022-10-13T10:02:12;13.83;;;10.70;;
44456;SDS011;30159;49.316;8.558;2022-10-13T10:04:45;18.67;;;10.97;;
44456;SDS011;30159;49.316;8.558;2022-10-13T10:07:12;19.10;;;10.80;;
44456;SDS011;30159;49.316;8.558;2022-10-13T10:09:46;16.00;;;11.77;;
44456;SDS011;30159;49.316;8.558;2022-10-13T10:12:17;13.83;;;10.90;;
44456;SDS011;30159;49.316;8.558;2022-10-13T10:14:45;14.80;;;12.30;;
44456;SDS011;30159;49.316;8.558;2022-10-13T10:17:16;18.87;;;14.67;;
44456;SDS011;30159;49.316;8.558;2022-10-13T10:19:51;20.80;;;12.83;;
44456;SDS011;30159;49.316;8.558;2022-10-13T10:22:29;18.40;;;12.77;;
44456;SDS011;30159;49.316;8.558;2022-10-13T10:25:07;17.30;;;11.67;;
44456;SDS011;30159;49.316;8.558;2022-10-13T10:27:44;13.70;;;9.90;;
44456;SDS011;30159;49.316;8.558;2022-10-13T10:30:21;13.87;;;10.10;;
44456;SDS011;30159;49.316;8.558;2022-10-13T10:32:49;12.30;;;8.73;;
44456;SDS011;30159;49.316;8.558;2022-10-13T10:35:33;18.40;;;10.93;;
44456;SDS011;30159;49.316;8.558;2022-10-13T10:38:07;14.90;;;9.70;;
44456;SDS011;30159;49.316;8.558;2022-10-13T10:40:49;21.37;;;11.20;;
44456;SDS011;30159;49.316;8.558;2022-10-13T10:46:15;15.23;;;10.83;;
44456;SDS011;30159;49.316;8.558;2022-10-13T10:48:45;17.70;;;11.80;;
44456;SDS011;30159;49.316;8.558;2022-10-13T10:51:14;17.37;;;11.23;;
44456;SDS011;30159;49.316;8.558;2022-10-13T10:53:46;13.50;;;11.00;;
44456;SDS011;30159;49.316;8.558;2022-10-13T10:56:23;15.07;;;10.77;;
44456;SDS011;30159;49.316;8.558;2022-10-13T10:58:58;13.57;;;10.70;;
44456;SDS011;30159;49.316;8.558;2022-10-13T11:01:33;15.10;;;11.10;;
44456;SDS011;30159;49.316;8.558;2022-10-13T11:04:16;13.57;;;10.57;;
44456;SDS011;30159;49.316;8.558;2022-10-13T11:06:57;17.17;;;11.60;;
44456;SDS011;30159;49.316;8.558;2022-10-13T11:13:03;13.77;;;11.03;;
44456;SDS011;30159;49.316;8.558;2022-10-13T11:15:40;11.57;;;10.37;;
44456;SDS011;30159;49.316;8.558;2022-10-13T11:21:12;11.57;;;9.50;;
44456;SDS011;30159;49.316;8.558;2022-10-13T11:23:42;13.80;;;10.70;;
44456;SDS011;30159;49.316;8.558;2022-10-13T11:26:26;15.43;;;10.70;;
44456;SDS011;30159;49.316;8.558;2022-10-13T11:28:56;14.90;;;11.63;;
44456;SDS011;30159;49.316;8.558;2022-10-13T11:31:29;12.63;;;11.00;;
44456;SDS011;30159;49.316;8.558;2022-10-13T11:34:24;14.60;;;10.20;;
44456;SDS011;30159;49.316;8.558;2022-10-13T11:36:54;13.47;;;10.30;;
44456;SDS011;30159;49.316;8.558;2022-10-13T11:42:46;14.13;;;10.53;;
44456;SDS011;30159;49.316;8.558;2022-10-13T11:45:43;12.23;;;10.40;;
44456;SDS011;30159;49.316;8.558;2022-10-13T11:51:28;12.87;;;10.80;;
44456;SDS011;30159;49.316;8.558;2022-10-13T11:53:58;14.40;;;10.20;;
44456;SDS011;30159;49.316;8.558;2022-10-13T11:56:35;11.40;;;9.70;;
44456;SDS011;30159;49.316;8.558;2022-10-13T11:59:20;16.27;;;10.90;;
44456;SDS011;30159;49.316;8.558;2022-10-13T12:01:54;16.20;;;10.30;;
44456;SDS011;30159;49.316;8.558;2022-10-13T12:04:24;13.10;;;11.70;;
44456;SDS011;30159;49.316;8.558;2022-10-13T12:06:56;14.97;;;11.83;;
44456;SDS011;30159;49.316;8.558;2022-10-13T12:09:26;14.73;;;10.27;;
44456;SDS011;30159;49.316;8.558;2022-10-13T12:12:00;15.10;;;10.60;;
44456;SDS011;30159;49.316;8.558;2022-10-13T12:14:32;16.60;;;10.87;;
44456;SDS011;30159;49.316;8.558;2022-10-13T12:17:17;17.90;;;11.97;;
44456;SDS011;30159;49.316;8.558;2022-10-13T12:19:46;11.70;;;10.50;;
44456;SDS011;30159;49.316;8.558;2022-10-13T12:22:13;12.40;;;9.87;;
44456;SDS011;30159;49.316;8.558;2022-10-13T12:24:39;22.00;;;10.77;;
44456;SDS011;30159;49.316;8.558;2022-10-13T12:27:08;13.80;;;10.10;;
44456;SDS011;30159;49.316;8.558;2022-10-13T12:29:37;16.50;;;10.33;;
44456;SDS011;30159;49.316;8.558;2022-10-13T12:32:17;12.70;;;10.00;;
44456;SDS011;30159;49.316;8.558;2022-10-13T12:34:45;10.97;;;9.37;;
44456;SDS011;30159;49.316;8.558;2022-10-13T12:37:13;12.87;;;9.93;;
44456;SDS011;30159;49.316;8.558;2022-10-13T12:39:43;12.57;;;9.13;;
44456;SDS011;30159;49.316;8.558;2022-10-13T12:42:10;12.30;;;10.33;;
44456;SDS011;30159;49.316;8.558;2022-10-13T12:44:39;14.37;;;10.17;;
44456;SDS011;30159;49.316;8.558;2022-10-13T12:47:09;12.83;;;9.47;;
44456;SDS011;30159;49.316;8.558;2022-10-13T12:53:05;15.53;;;8.80;;
44456;SDS011;30159;49.316;8.558;2022-10-13T12:55:44;14.77;;;10.00;;
44456;SDS011;30159;49.316;8.558;2022-10-13T12:58:15;11.30;;;9.30;;
44456;SDS011;30159;49.316;8.558;2022-10-13T13:00:52;12.83;;;9.63;;
44456;SDS011;30159;49.316;8.558;2022-10-13T13:03:23;14.70;;;9.10;;
44456;SDS011;30159;49.316;8.558;2022-10-13T13:06:06;12.30;;;9.80;;
44456;SDS011;30159;49.316;8.558;2022-10-13T13:09:04;13.73;;;9.30;;
44456;SDS011;30159;49.316;8.558;2022-10-13T13:11:33;13.60;;;9.60;;
44456;SDS011;30159;49.316;8.558;2022-10-13T13:17:03;15.97;;;9.70;;
44456;SDS011;30159;49.316;8.558;2022-10-13T13:19:33;13.07;;;10.13;;
44456;SDS011;30159;49.316;8.558;2022-10-13T13:22:01;12.30;;;9.40;;
44456;SDS011;30159;49.316;8.558;2022-10-13T13:24:28;13.97;;;10.00;;
44456;SDS011;30159;49.316;8.558;2022-10-13T13:26:55;11.30;;;9.40;;
44456;SDS011;30159;49.316;8.558;2022-10-13T13:29:22;15.27;;;10.43;;
44456;SDS011;30159;49.316;8.558;2022-10-13T13:31:48;14.90;;;10.43;;
44456;SDS011;30159;49.316;8.558;2022-10-13T13:34:15;14.80;;;9.60;;
44456;SDS011;30159;49.316;8.558;2022-10-13T13:36:43;13.87;;;10.10;;
44456;SDS011;30159;49.316;8.558;2022-10-13T13:39:12;11.00;;;9.90;;
44456;SDS011;30159;49.316;8.558;2022-10-13T13:41:42;12.40;;;9.90;;
44456;SDS011;30159;49.316;8.558;2022-10-13T13:44:09;17.20;;;10.57;;
44456;SDS011;30159;49.316;8.558;2022-10-13T13:46:35;13.80;;;9.40;;
44456;SDS011;30159;49.316;8.558;2022-10-13T13:49:02;16.47;;;9.83;;
44456;SDS011;30159;49.316;8.558;2022-10-13T13:51:28;18.50;;;10.23;;
44456;SDS011;30159;49.316;8.558;2022-10-13T13:53:56;17.47;;;9.73;;
44456;SDS011;30159;49.316;8.558;2022-10-13T13:56:23;15.17;;;9.93;;
44456;SDS011;30159;49.316;8.558;2022-10-13T13:58:49;13.20;;;10.10;;
44456;SDS011;30159;49.316;8.558;2022-10-13T14:01:16;10.77;;;9.67;;
44456;SDS011;30159;49.316;8.558;2022-10-13T14:03:42;10.30;;;8.90;;
44456;SDS011;30159;49.316;8.558;2022-10-13T14:06:15;11.30;;;8.10;;
44456;SDS011;30159;49.316;8.558;2022-10-13T14:08:42;11.03;;;8.80;;
44456;SDS011;30159;49.316;8.558;2022-10-13T14:11:10;10.50;;;8.80;;
44456;SDS011;30159;49.316;8.558;2022-10-13T14:13:37;12.53;;;8.80;;
44456;SDS011;30159;49.316;8.558;2022-10-13T14:16:03;15.37;;;8.83;;
44456;SDS011;30159;49.316;8.558;2022-10-13T14:18:30;16.33;;;9.37;;
44456;SDS011;30159;49.316;8.558;2022-10-13T14:20:57;11.67;;;8.63;;
44456;SDS011;30159;49.316;8.558;2022-10-13T14:23:23;14.20;;;9.70;;
44456;SDS011;30159;49.316;8.558;2022-10-13T14:25:50;12.40;;;9.20;;
44456;SDS011;30159;49.316;8.558;2022-10-13T14:28:18;9.83;;;8.60;;
44456;SDS011;30159;49.316;8.558;2022-10-13T14:30:44;12.63;;;9.80;;
44456;SDS011;30159;49.316;8.558;2022-10-13T14:33:11;14.73;;;10.67;;
44456;SDS011;30159;49.316;8.558;2022-10-13T14:35:38;9.77;;;8.80;;
44456;SDS011;30159;49.316;8.558;2022-10-13T14:38:04;11.00;;;8.80;;
44456;SDS011;30159;49.316;8.558;2022-10-13T14:40:31;15.93;;;9.80;;
44456;SDS011;30159;49.316;8.558;2022-10-13T14:42:57;10.10;;;8.50;;
44456;SDS011;30159;49.316;8.558;2022-10-13T14:45:25;11.43;;;9.07;;
44456;SDS011;30159;49.316;8.558;2022-10-13T14:47:51;9.93;;;8.87;;
44456;SDS011;30159;49.316;8.558;2022-10-13T14:50:18;12.57;;;9.47;;
44456;SDS011;30159;49.316;8.558;2022-10-13T14:52:45;11.70;;;9.40;;
44456;SDS011;30159;49.316;8.558;2022-10-13T14:55:11;14.43;;;9.30;;
44456;SDS011;30159;49.316;8.558;2022-10-13T14:57:38;13.10;;;9.93;;
44456;SDS011;30159;49.316;8.558;2022-10-13T15:00:04;19.03;;;9.77;;
44456;SDS011;30159;49.316;8.558;2022-10-13T15:02:33;14.50;;;9.00;;
44456;SDS011;30159;49.316;8.558;2022-10-13T15:04:59;12.80;;;9.90;;
44456;SDS011;30159;49.316;8.558;2022-10-13T15:07:26;11.17;;;8.90;;